createdAt,value
2018-09-21T05:02:08.882Z,4.73
2018-09-21T05:07:12.203Z,4.47
2018-09-21T05:12:15.532Z,5.07
2018-09-21T05:17:18.857Z,4.47
2018-09-21T05:22:22.183Z,3.80
2018-09-21T05:27:25.722Z,3.73
2018-09-21T05:32:29.071Z,4.27
2018-09-21T05:37:32.424Z,4.10
2018-09-21T05:42:35.744Z,3.70
2018-09-21T05:47:39.063Z,3.73
2018-09-21T05:52:42.388Z,3.80
2018-09-21T05:57:45.718Z,2.80
2018-09-21T06:02:49.125Z,4.07
2018-09-21T06:07:52.516Z,3.43
2018-09-21T06:12:55.784Z,3.83
2018-09-21T06:17:59.119Z,3.47
2018-09-21T06:23:02.518Z,3.50
2018-09-21T06:28:05.796Z,3.37
2018-09-21T06:33:09.134Z,4.47
2018-09-21T06:38:12.455Z,3.83
2018-09-21T06:43:15.782Z,3.17
2018-09-21T06:59:30.772Z,3.43
2018-09-21T07:04:34.110Z,2.90
2018-09-21T07:09:37.443Z,2.70
2018-09-21T07:14:40.776Z,2.70
2018-09-21T07:19:44.126Z,2.77
2018-09-21T07:24:47.447Z,2.60
2018-09-21T07:29:50.784Z,2.80
2018-09-21T07:34:54.110Z,2.60
2018-09-21T07:39:57.439Z,2.47
2018-09-21T07:45:00.765Z,2.17
2018-09-21T07:50:04.095Z,2.73
2018-09-21T07:55:07.427Z,2.80
2018-09-21T08:00:10.773Z,2.37
2018-09-21T08:05:14.658Z,2.67
2018-09-21T08:10:45.274Z,2.53
2018-09-21T08:15:49.074Z,2.60
2018-09-21T08:20:52.403Z,2.67
2018-09-21T08:25:55.797Z,2.77
2018-09-21T08:30:59.130Z,2.07
2018-09-21T08:36:02.454Z,2.70
2018-09-21T08:41:05.790Z,2.00
2018-09-21T08:46:09.132Z,3.00
2018-09-21T08:51:12.463Z,3.30
2018-09-21T08:56:15.831Z,3.30
2018-09-21T09:01:19.161Z,3.40
2018-09-21T09:06:22.487Z,3.30
2018-09-21T09:11:25.830Z,3.40
2018-09-21T09:16:29.166Z,3.13
2018-09-21T09:21:32.495Z,3.50
2018-09-21T09:26:35.822Z,4.05
2018-09-21T09:31:39.150Z,3.30
2018-09-21T09:36:43.268Z,3.17
2018-09-21T09:41:46.590Z,3.57
2018-09-21T09:46:49.919Z,3.70
2018-09-21T09:51:53.248Z,3.20
2018-09-21T09:56:56.578Z,3.13
2018-09-21T10:01:59.904Z,2.63
2018-09-21T10:07:03.235Z,2.60
2018-09-21T10:12:06.566Z,3.27
2018-09-21T10:17:09.896Z,2.83
2018-09-21T10:22:13.240Z,3.10
2018-09-21T10:27:16.702Z,3.40
2018-09-21T10:32:19.926Z,3.70
2018-09-21T10:37:23.259Z,3.47
2018-09-21T10:42:26.635Z,3.50
2018-09-21T10:47:29.928Z,3.63
2018-09-21T10:52:33.257Z,3.40
2018-09-21T10:57:36.592Z,2.70
2018-09-21T11:02:39.923Z,2.90
2018-09-21T11:07:43.274Z,3.17
2018-09-21T11:12:46.632Z,3.13
2018-09-21T11:17:49.959Z,3.90
2018-09-21T11:22:53.299Z,3.80
2018-09-21T11:27:56.626Z,3.57
2018-09-21T11:33:00.019Z,3.27
2018-09-21T11:38:03.321Z,3.80
2018-09-21T11:43:06.697Z,3.30
2018-09-21T11:48:10.034Z,3.93
2018-09-21T11:53:13.375Z,3.80
2018-09-21T11:58:16.703Z,4.20
2018-09-21T12:03:20.035Z,3.43
2018-09-21T12:08:23.704Z,3.23
2018-09-21T12:13:27.100Z,3.30
2018-09-21T12:18:30.434Z,3.07
2018-09-21T12:23:33.767Z,3.13
2018-09-21T12:28:37.094Z,3.43
2018-09-21T12:33:40.427Z,3.30
2018-09-21T12:38:43.779Z,3.27
2018-09-21T12:43:47.100Z,3.40
2018-09-21T12:48:50.423Z,3.67
2018-09-21T12:53:53.755Z,3.40
2018-09-21T12:58:57.196Z,3.60
2018-09-21T13:04:00.442Z,3.23
2018-09-21T13:09:03.783Z,3.13
2018-09-21T13:14:07.117Z,3.23
2018-09-21T13:19:10.489Z,3.20
2018-09-21T13:24:13.820Z,3.15
2018-09-21T13:29:17.210Z,2.62
2018-09-21T13:34:20.543Z,2.50
2018-09-21T13:39:25.785Z,2.87
2018-09-21T13:44:29.124Z,2.55
2018-09-21T13:49:32.557Z,2.80
2018-09-21T13:54:35.894Z,2.70
2018-09-21T13:59:40.205Z,2.77
2018-09-21T14:04:43.563Z,2.70
2018-09-21T14:09:46.934Z,2.87
2018-09-21T14:14:50.265Z,2.93
2018-09-21T14:19:53.675Z,2.60
2018-09-21T14:24:57.771Z,3.10
2018-09-21T14:35:41.145Z,2.90
2018-09-21T14:40:44.482Z,3.07
2018-09-21T14:45:47.815Z,3.27
2018-09-21T14:50:51.158Z,2.97
2018-09-21T14:55:54.490Z,3.27
2018-09-21T15:00:57.815Z,2.93
2018-09-21T15:06:01.151Z,3.23
2018-09-21T15:11:04.494Z,3.13
2018-09-21T15:16:07.887Z,3.27
2018-09-21T15:21:12.745Z,2.97
2018-09-21T15:26:17.761Z,3.20
2018-09-21T15:31:21.095Z,3.13
2018-09-21T15:36:25.478Z,3.53
2018-09-21T15:46:38.866Z,3.60
2018-09-21T15:51:42.336Z,4.27
2018-09-21T15:56:45.688Z,3.40
2018-09-21T16:01:49.038Z,3.83
2018-09-21T16:06:52.459Z,3.77
2018-09-21T16:11:55.780Z,3.40
2018-09-21T16:16:59.458Z,3.30
2018-09-21T16:22:03.095Z,3.50
2018-09-21T16:27:06.419Z,3.47
2018-09-21T16:32:09.786Z,3.83
2018-09-21T16:37:13.123Z,4.20
2018-09-21T16:42:16.561Z,3.43
2018-09-21T16:47:20.178Z,3.87
2018-09-21T16:52:23.872Z,4.13
2018-09-21T16:57:27.237Z,3.70
2018-09-21T17:02:30.549Z,3.93
2018-09-21T17:07:33.943Z,3.77
2018-09-21T17:12:45.747Z,3.60
2018-09-21T17:17:49.096Z,3.70
2018-09-21T17:22:52.724Z,3.70
2018-09-21T17:27:56.067Z,3.40
2018-09-21T17:32:59.400Z,3.90
2018-09-21T17:38:02.752Z,3.17
2018-09-21T17:43:06.095Z,3.47
2018-09-21T17:48:09.436Z,3.30
2018-09-21T17:53:12.768Z,3.40
2018-09-21T17:58:16.105Z,3.37
2018-09-21T18:03:19.473Z,3.10
2018-09-21T18:08:23.964Z,3.30
2018-09-21T18:13:27.453Z,3.07
2018-09-21T18:18:30.925Z,3.13
2018-09-21T18:23:34.549Z,3.23
2018-09-21T18:28:38.117Z,2.97
2018-09-21T18:33:41.503Z,3.47
2018-09-21T18:38:45.092Z,3.07
2018-09-21T18:43:48.696Z,3.47
2018-09-21T18:48:53.154Z,3.23
2018-09-21T18:53:57.439Z,3.00
2018-09-21T18:59:01.310Z,3.47
2018-09-21T19:04:05.958Z,2.33
2018-09-21T19:09:09.611Z,1.70
2018-09-21T19:14:13.217Z,1.30
2018-09-21T19:19:16.851Z,1.03
2018-09-21T19:24:20.221Z,0.80
2018-09-21T19:29:23.772Z,1.13
2018-09-21T19:34:27.133Z,0.57
2018-09-21T19:39:30.471Z,0.60
2018-09-21T19:44:34.020Z,0.50
2018-09-21T19:49:40.843Z,0.50
2018-09-21T19:54:44.302Z,0.77
2018-09-21T20:00:03.344Z,0.50
2018-09-21T20:05:06.894Z,0.60
2018-09-21T20:10:12.167Z,0.90
2018-09-21T20:15:15.524Z,0.70
2018-09-21T20:20:40.742Z,0.80
2018-09-21T20:25:45.820Z,0.80
2018-09-21T20:30:49.200Z,1.20
2018-09-21T20:35:52.560Z,0.93
2018-09-21T20:40:55.902Z,0.90
2018-09-21T20:45:59.231Z,1.10
2018-09-21T20:51:02.559Z,1.03
2018-09-21T20:56:05.896Z,1.10
2018-09-21T21:01:09.218Z,1.00
2018-09-21T21:06:12.547Z,1.20
2018-09-21T21:11:15.876Z,1.30
2018-09-21T21:16:19.203Z,1.30
2018-09-21T21:21:22.581Z,1.47
2018-09-21T21:26:25.925Z,1.60
2018-09-21T21:31:29.417Z,1.80
2018-09-21T21:36:33.052Z,1.50
2018-09-21T21:41:36.406Z,1.93
2018-09-21T21:46:39.910Z,1.80
2018-09-21T21:51:43.275Z,1.57
2018-09-21T21:56:46.752Z,2.00
2018-09-21T22:01:50.986Z,1.53
2018-09-21T22:06:54.335Z,1.47
2018-09-21T22:11:57.691Z,1.50
2018-09-21T22:17:01.046Z,1.23
2018-09-21T22:22:04.418Z,1.83
2018-09-21T22:27:07.784Z,1.33
